createdAt,value
2019-06-20T00:01:22.781Z,22.50
2019-06-20T00:03:53.426Z,22.40
2019-06-20T00:06:23.894Z,22.40
2019-06-20T00:08:54.396Z,22.30
2019-06-20T00:11:24.778Z,22.20
2019-06-20T00:13:55.170Z,22.10
2019-06-20T00:16:25.609Z,22.00
2019-06-20T00:18:56.010Z,22.00
2019-06-20T00:21:26.376Z,21.90
2019-06-20T00:23:56.757Z,21.80
2019-06-20T00:26:27.124Z,21.70
2019-06-20T00:28:57.494Z,21.70
2019-06-20T00:31:27.873Z,21.60
2019-06-20T00:33:58.245Z,21.60
2019-06-20T00:36:28.613Z,21.50
2019-06-20T00:38:58.970Z,21.50
2019-06-20T00:41:29.337Z,21.40
2019-06-20T00:43:59.703Z,21.40
2019-06-20T00:46:30.076Z,21.30
2019-06-20T00:49:00.493Z,21.20
2019-06-20T00:51:30.983Z,21.20
2019-06-20T00:54:01.340Z,21.10
2019-06-20T00:56:31.712Z,21.00
2019-06-20T00:59:02.137Z,20.90
2019-06-20T01:01:32.528Z,20.90
2019-06-20T01:04:02.958Z,20.80
2019-06-20T01:06:33.356Z,20.70
2019-06-20T01:09:05.253Z,20.60
2019-06-20T01:11:35.628Z,20.60
2019-06-20T01:14:06.660Z,20.50
2019-06-20T01:16:37.086Z,20.40
2019-06-20T01:19:07.449Z,20.40
2019-06-20T01:21:37.818Z,20.40
2019-06-20T01:24:08.204Z,20.30
2019-06-20T01:26:38.577Z,20.30
2019-06-20T01:29:08.941Z,20.30
2019-06-20T01:31:39.309Z,20.30
2019-06-20T01:34:09.667Z,20.30
2019-06-20T01:36:40.044Z,20.30
2019-06-20T01:39:10.472Z,20.30
2019-06-20T01:41:40.849Z,20.30
2019-06-20T01:44:11.212Z,20.30
2019-06-20T01:46:41.583Z,20.30
2019-06-20T01:49:12.009Z,20.30
2019-06-20T01:51:42.386Z,20.40
2019-06-20T01:54:12.747Z,20.30
2019-06-20T01:56:43.120Z,20.40
2019-06-20T01:59:13.489Z,20.40
2019-06-20T02:01:43.862Z,20.40
2019-06-20T02:04:14.265Z,20.40
2019-06-20T02:06:44.679Z,20.40
2019-06-20T02:09:15.001Z,20.40
2019-06-20T02:11:45.622Z,20.40
2019-06-20T02:14:15.978Z,20.50
2019-06-20T02:16:46.686Z,20.50
2019-06-20T02:19:17.060Z,20.50
2019-06-20T02:21:47.428Z,20.60
2019-06-20T02:24:17.789Z,20.60
2019-06-20T02:26:48.163Z,20.60
2019-06-20T02:29:18.516Z,20.70
2019-06-20T02:31:48.930Z,20.70
2019-06-20T02:34:19.289Z,20.80
2019-06-20T02:36:49.655Z,20.80
2019-06-20T02:39:20.020Z,20.80
2019-06-20T02:41:50.388Z,20.80
2019-06-20T02:44:29.884Z,20.80
2019-06-20T02:46:52.811Z,20.80
2019-06-20T02:49:23.167Z,20.80
2019-06-20T02:51:54.602Z,20.80
2019-06-20T02:54:24.964Z,20.80
2019-06-20T02:56:55.328Z,20.80
2019-06-20T02:59:25.717Z,20.70
2019-06-20T03:01:56.091Z,20.70
2019-06-20T03:04:26.447Z,20.80
2019-06-20T03:06:57.884Z,20.70
2019-06-20T03:09:28.244Z,20.70
2019-06-20T03:11:58.613Z,20.70
2019-06-20T03:14:44.281Z,20.70
2019-06-20T03:17:01.036Z,20.60
2019-06-20T03:19:31.399Z,20.60
2019-06-20T03:22:01.777Z,20.60
2019-06-20T03:24:32.140Z,20.60
2019-06-20T03:27:02.520Z,20.60
2019-06-20T03:29:32.884Z,20.60
2019-06-20T03:32:03.260Z,20.60
2019-06-20T03:34:33.619Z,20.50
2019-06-20T03:37:04.063Z,20.50
2019-06-20T03:39:34.424Z,20.50
2019-06-20T03:42:04.825Z,20.50
2019-06-20T03:44:35.189Z,20.50
2019-06-20T03:47:05.582Z,20.40
2019-06-20T03:49:35.940Z,20.40
2019-06-20T03:52:06.361Z,20.40
2019-06-20T03:54:36.721Z,20.40
2019-06-20T03:57:07.201Z,20.30
2019-06-20T03:59:37.563Z,20.30
2019-06-20T04:02:07.953Z,20.30
2019-06-20T04:04:38.319Z,20.20
2019-06-20T04:07:09.772Z,20.20
2019-06-20T04:09:40.455Z,20.20
2019-06-20T04:12:10.859Z,20.20
2019-06-20T04:14:41.194Z,20.20
2019-06-20T04:17:11.660Z,20.20
2019-06-20T04:19:42.032Z,20.30
2019-06-20T04:22:12.392Z,20.30
2019-06-20T04:24:42.768Z,20.30
2019-06-20T04:27:13.123Z,20.30
2019-06-20T04:29:43.496Z,20.40
2019-06-20T04:32:13.877Z,20.40
2019-06-20T04:34:44.249Z,20.50
2019-06-20T04:37:14.612Z,20.50
2019-06-20T04:39:44.982Z,20.60
2019-06-20T04:42:18.526Z,20.60
2019-06-20T04:44:47.420Z,20.70
2019-06-20T04:47:17.853Z,20.80
2019-06-20T04:49:48.487Z,21.00
2019-06-20T04:52:18.854Z,21.30
2019-06-20T04:54:49.218Z,21.50
2019-06-20T04:57:19.580Z,21.90
2019-06-20T04:59:51.599Z,22.40
2019-06-20T05:02:23.609Z,22.90
2019-06-20T05:04:53.977Z,23.40
2019-06-20T05:07:24.340Z,23.80
2019-06-20T05:09:54.978Z,24.20
2019-06-20T05:12:25.345Z,24.60
2019-06-20T05:14:55.720Z,24.80
2019-06-20T05:17:26.085Z,25.00
2019-06-20T05:19:56.460Z,25.10
2019-06-20T05:22:26.824Z,25.10
2019-06-20T05:24:57.205Z,25.10
2019-06-20T05:27:27.567Z,25.10
2019-06-20T05:29:57.936Z,25.10
2019-06-20T05:32:28.293Z,25.10
2019-06-20T05:35:02.651Z,25.10
2019-06-20T05:37:30.727Z,25.10
2019-06-20T05:40:01.093Z,25.20
2019-06-20T05:42:31.472Z,25.20
2019-06-20T05:45:01.928Z,25.10
2019-06-20T05:47:32.282Z,25.10
2019-06-20T05:50:02.661Z,25.10
2019-06-20T05:52:33.025Z,25.00
2019-06-20T05:55:05.141Z,24.90
2019-06-20T05:57:35.504Z,24.80
2019-06-20T06:00:08.685Z,24.60
2019-06-20T06:02:40.248Z,24.50
2019-06-20T06:05:12.271Z,24.40
2019-06-20T06:07:42.637Z,24.40
2019-06-20T06:10:13.715Z,24.20
2019-06-20T06:12:45.267Z,24.10
2019-06-20T06:15:15.770Z,23.90
2019-06-20T06:17:46.131Z,23.70
2019-06-20T06:20:18.311Z,23.60
2019-06-20T06:22:48.670Z,23.40
2019-06-20T06:25:19.214Z,23.30
2019-06-20T06:27:49.595Z,23.20
2019-06-20T06:30:21.060Z,23.00
2019-06-20T06:32:50.705Z,22.90
2019-06-20T06:35:21.271Z,22.80
2019-06-20T06:37:51.656Z,22.80
2019-06-20T06:40:22.739Z,22.70
2019-06-20T06:42:53.117Z,22.70
2019-06-20T06:45:24.022Z,22.70
2019-06-20T06:47:54.385Z,22.80
2019-06-20T06:50:25.872Z,22.80
2019-06-20T06:52:55.807Z,22.90
2019-06-20T06:55:27.867Z,23.10
2019-06-20T06:57:58.514Z,23.10
2019-06-20T07:00:29.140Z,23.20
2019-06-20T07:02:59.497Z,23.30
2019-06-20T07:05:30.213Z,23.50
2019-06-20T07:08:00.576Z,23.70
2019-06-20T07:10:30.932Z,23.80
2019-06-20T07:13:01.300Z,24.00
2019-06-20T07:15:31.832Z,24.30
2019-06-20T07:18:02.263Z,24.60
2019-06-20T07:20:32.635Z,25.00
2019-06-20T07:23:02.994Z,25.30
2019-06-20T07:25:33.370Z,25.70
2019-06-20T07:28:03.738Z,26.10
2019-06-20T07:30:35.272Z,26.30
2019-06-20T07:33:05.723Z,26.50
2019-06-20T07:35:36.086Z,26.60
2019-06-20T07:38:06.447Z,26.50
2019-06-20T07:40:36.841Z,26.50
2019-06-20T07:43:07.208Z,26.40
2019-06-20T07:45:37.594Z,26.30
2019-06-20T07:48:07.946Z,26.30
2019-06-20T07:50:39.453Z,26.20
2019-06-20T07:53:10.937Z,26.20
2019-06-20T07:55:41.560Z,26.20
2019-06-20T07:58:11.789Z,26.30
2019-06-20T08:00:42.165Z,26.40
2019-06-20T08:03:12.527Z,26.40
2019-06-20T08:05:42.900Z,26.50
2019-06-20T08:08:13.260Z,26.60
2019-06-20T08:10:43.633Z,26.70
2019-06-20T08:13:13.994Z,26.90
2019-06-20T08:15:44.430Z,27.00
2019-06-20T08:18:14.960Z,27.20
2019-06-20T08:20:45.332Z,27.30
2019-06-20T08:23:15.688Z,27.40
2019-06-20T08:25:46.062Z,27.30
2019-06-20T08:28:16.422Z,27.30
2019-06-20T08:30:46.802Z,27.20
2019-06-20T08:33:17.169Z,27.00
2019-06-20T08:35:47.534Z,26.80
2019-06-20T08:38:18.813Z,26.60
2019-06-20T08:40:48.463Z,26.30
2019-06-20T08:43:18.712Z,26.20
2019-06-20T08:45:49.063Z,25.90
2019-06-20T08:48:19.436Z,25.80
2019-06-20T08:50:49.801Z,25.70
2019-06-20T08:53:20.188Z,25.60
2019-06-20T08:55:50.551Z,25.60
2019-06-20T08:58:21.198Z,25.60
2019-06-20T09:00:52.636Z,25.60
2019-06-20T09:03:22.979Z,25.60
2019-06-20T09:05:54.925Z,25.60
2019-06-20T09:08:25.442Z,25.50
2019-06-20T09:10:55.801Z,25.50
2019-06-20T09:13:26.169Z,25.40
2019-06-20T09:15:56.807Z,25.40
2019-06-20T09:18:27.178Z,25.30
2019-06-20T09:20:58.094Z,25.30
2019-06-20T09:23:28.502Z,25.30
2019-06-20T09:25:59.659Z,25.20
2019-06-20T09:28:30.088Z,25.20
2019-06-20T09:31:00.447Z,25.20
2019-06-20T09:33:30.830Z,25.20
2019-06-20T09:36:01.191Z,25.30
2019-06-20T09:38:31.563Z,25.30
2019-06-20T09:41:03.341Z,25.40
2019-06-20T09:43:33.912Z,25.50
2019-06-20T09:46:04.613Z,25.70
2019-06-20T09:48:35.241Z,25.90
2019-06-20T09:51:05.470Z,26.20
2019-06-20T09:53:35.848Z,26.50
2019-06-20T09:56:06.206Z,26.80
2019-06-20T09:58:36.580Z,27.10
2019-06-20T10:01:06.942Z,27.40
2019-06-20T10:03:37.314Z,27.70
2019-06-20T10:06:13.837Z,28.10
2019-06-20T10:08:40.000Z,28.40
2019-06-20T10:11:10.359Z,28.70
2019-06-20T10:13:40.734Z,29.10
2019-06-20T10:16:11.107Z,29.50
2019-06-20T10:18:41.483Z,29.80
2019-06-20T10:21:11.848Z,30.20
2019-06-20T10:23:43.196Z,30.50
2019-06-20T10:26:13.561Z,30.80
2019-06-20T10:28:44.619Z,31.10
2019-06-20T10:31:16.076Z,31.40
2019-06-20T10:33:46.894Z,31.70
2019-06-20T10:36:18.341Z,31.90
2019-06-20T10:38:50.233Z,32.10
2019-06-20T10:41:20.703Z,32.30
2019-06-20T10:43:51.770Z,32.50
2019-06-20T10:46:22.289Z,32.60
2019-06-20T10:48:52.978Z,32.70
2019-06-20T10:51:42.381Z,32.80
2019-06-20T10:54:13.247Z,32.90
2019-06-20T10:56:44.114Z,33.00
2019-06-20T10:59:15.848Z,33.10
2019-06-20T11:01:48.363Z,33.20
2019-06-20T11:04:18.876Z,33.30
2019-06-20T11:06:49.666Z,33.40
2019-06-20T11:09:20.210Z,33.30
2019-06-20T11:11:50.576Z,33.30
2019-06-20T11:14:20.943Z,33.20
2019-06-20T11:16:51.305Z,33.20
2019-06-20T11:19:21.691Z,33.10
2019-06-20T11:21:52.049Z,33.00
2019-06-20T11:24:22.463Z,32.90
2019-06-20T11:26:52.829Z,32.90
2019-06-20T11:29:23.198Z,32.80
2019-06-20T11:31:53.570Z,32.80
2019-06-20T11:34:23.944Z,32.90
2019-06-20T11:36:54.329Z,32.90
2019-06-20T11:39:24.690Z,33.00
2019-06-20T11:41:55.065Z,33.00
2019-06-20T11:44:25.432Z,33.10
2019-06-20T11:46:55.797Z,33.20
2019-06-20T11:49:26.168Z,33.20
2019-06-20T11:51:56.807Z,33.30
2019-06-20T11:54:27.287Z,33.30
2019-06-20T11:56:57.644Z,33.30
2019-06-20T11:59:28.184Z,33.40
2019-06-20T12:01:58.554Z,33.50
2019-06-20T12:04:28.924Z,33.40
2019-06-20T12:06:59.293Z,33.30
2019-06-20T12:09:29.683Z,33.20
2019-06-20T12:12:00.058Z,33.00
2019-06-20T12:14:30.435Z,32.80
2019-06-20T12:17:00.800Z,32.50
2019-06-20T12:19:31.201Z,32.20
2019-06-20T12:22:01.592Z,32.00
2019-06-20T12:24:32.004Z,31.70
2019-06-20T12:27:02.391Z,31.40
2019-06-20T12:29:32.846Z,31.10
2019-06-20T12:32:03.214Z,30.90
2019-06-20T12:34:33.593Z,30.60
2019-06-20T12:37:03.961Z,30.40
2019-06-20T12:39:34.357Z,30.10
2019-06-20T12:42:04.728Z,29.90
2019-06-20T12:44:35.096Z,29.70
2019-06-20T12:47:05.527Z,29.60
2019-06-20T12:49:37.274Z,29.40
2019-06-20T12:52:07.971Z,29.20
2019-06-20T12:54:39.567Z,29.00
2019-06-20T12:57:10.402Z,28.90
2019-06-20T12:59:41.336Z,28.70
2019-06-20T13:02:13.041Z,28.60
2019-06-20T13:04:51.332Z,28.50
2019-06-20T13:07:22.208Z,28.40
2019-06-20T13:09:52.656Z,28.40
2019-06-20T13:12:23.041Z,28.30
2019-06-20T13:14:53.385Z,28.20
2019-06-20T13:17:23.751Z,28.20
2019-06-20T13:19:54.160Z,28.20
2019-06-20T13:22:24.496Z,28.20
2019-06-20T13:24:54.874Z,28.20
2019-06-20T13:27:25.238Z,28.30
2019-06-20T13:29:55.620Z,28.40
2019-06-20T13:32:25.981Z,28.50
2019-06-20T13:34:56.413Z,28.60
2019-06-20T13:37:27.050Z,28.70
2019-06-20T13:39:57.443Z,28.80
2019-06-20T13:42:27.876Z,28.90
2019-06-20T13:44:58.281Z,29.00
2019-06-20T13:47:28.630Z,29.00
2019-06-20T13:49:59.012Z,29.10
2019-06-20T13:52:29.388Z,29.10
2019-06-20T13:54:59.870Z,29.10
2019-06-20T13:57:30.258Z,29.20
2019-06-20T14:00:00.612Z,29.30
2019-06-20T14:02:45.403Z,29.40
2019-06-20T14:05:16.123Z,29.60
2019-06-20T14:07:50.548Z,30.00
2019-06-20T14:10:18.975Z,30.20
2019-06-20T14:12:49.352Z,30.40
2019-06-20T14:15:20.664Z,30.50
2019-06-20T14:17:51.285Z,30.50
2019-06-20T14:20:23.222Z,30.50
2019-06-20T14:22:54.605Z,30.60
2019-06-20T14:25:25.102Z,30.80
2019-06-20T14:27:55.468Z,31.20
2019-06-20T14:30:26.451Z,31.60
2019-06-20T14:32:58.272Z,31.90
2019-06-20T14:35:28.641Z,32.10
2019-06-20T14:37:59.576Z,32.10
2019-06-20T14:40:29.947Z,32.10
2019-06-20T14:43:00.311Z,32.10
2019-06-20T14:45:30.680Z,32.10
2019-06-20T14:48:01.049Z,32.30
2019-06-20T14:50:31.761Z,32.50
2019-06-20T14:53:02.123Z,32.80
2019-06-20T14:55:32.520Z,33.20
2019-06-20T14:58:02.891Z,33.60
2019-06-20T15:00:33.690Z,33.90
2019-06-20T15:03:04.533Z,34.30
2019-06-20T15:05:35.039Z,34.60
2019-06-20T15:08:05.373Z,34.90
2019-06-20T15:10:35.774Z,35.20
2019-06-20T15:13:06.151Z,35.50
2019-06-20T15:15:37.311Z,35.70
2019-06-20T15:18:07.677Z,36.00
2019-06-20T15:20:38.061Z,36.20
2019-06-20T15:23:08.865Z,36.40
2019-06-20T15:25:39.344Z,36.60
2019-06-20T15:28:09.722Z,36.80
2019-06-20T15:30:40.453Z,37.00
2019-06-20T15:33:10.842Z,37.20
2019-06-20T15:35:41.216Z,37.40
2019-06-20T15:38:11.572Z,37.50
2019-06-20T15:40:41.955Z,37.70
2019-06-20T15:43:12.320Z,37.70
2019-06-20T15:45:42.706Z,37.60
2019-06-20T15:48:13.240Z,37.50
2019-06-20T15:50:43.912Z,37.30
2019-06-20T15:53:14.278Z,37.30
2019-06-20T15:55:44.647Z,37.30
2019-06-20T15:58:15.040Z,37.30
2019-06-20T16:00:46.537Z,37.30
2019-06-20T16:03:16.912Z,37.40
2019-06-20T16:05:47.275Z,37.40
2019-06-20T16:08:17.722Z,37.50
2019-06-20T16:10:48.409Z,37.50
2019-06-20T16:13:18.896Z,37.40
2019-06-20T16:15:49.218Z,37.10
2019-06-20T16:18:19.592Z,36.80
2019-06-20T16:20:49.958Z,36.70
2019-06-20T16:23:20.342Z,36.50
2019-06-20T16:25:50.705Z,36.40
2019-06-20T16:28:21.088Z,36.40
2019-06-20T16:31:07.667Z,36.40
2019-06-20T16:33:25.538Z,36.40
2019-06-20T16:35:56.059Z,36.40
2019-06-20T16:38:26.427Z,36.30
2019-06-20T16:40:57.768Z,36.20
2019-06-20T16:43:28.141Z,35.90
2019-06-20T16:45:58.493Z,35.60
2019-06-20T16:48:28.898Z,35.20
2019-06-20T16:50:59.363Z,34.80
2019-06-20T16:53:29.760Z,34.40
2019-06-20T16:56:00.091Z,34.10
2019-06-20T16:58:30.731Z,33.90
2019-06-20T17:01:01.180Z,33.70
2019-06-20T17:03:41.806Z,33.50
2019-06-20T17:06:04.653Z,33.30
2019-06-20T17:08:35.030Z,33.20
2019-06-20T17:11:06.006Z,33.00
2019-06-20T17:13:36.370Z,32.90
2019-06-20T17:16:06.744Z,32.80
2019-06-20T17:18:37.112Z,32.60
2019-06-20T17:21:07.567Z,32.40
2019-06-20T17:23:37.958Z,32.20
2019-06-20T17:26:08.323Z,32.00
2019-06-20T17:28:38.693Z,31.70
2019-06-20T17:31:09.059Z,31.50
2019-06-20T17:33:39.446Z,31.30
2019-06-20T17:36:18.323Z,31.00
2019-06-20T17:38:43.911Z,30.80
2019-06-20T17:41:14.353Z,30.60
2019-06-20T17:43:45.775Z,30.40
2019-06-20T17:46:16.429Z,30.20
2019-06-20T17:48:46.805Z,30.00
2019-06-20T17:51:17.162Z,29.70
2019-06-20T17:53:49.606Z,29.60
2019-06-20T17:56:19.616Z,29.30
2019-06-20T17:58:49.967Z,29.20
2019-06-20T18:01:20.327Z,29.00
2019-06-20T18:03:50.788Z,28.80
2019-06-20T18:06:21.156Z,28.60
2019-06-20T18:08:51.534Z,28.50
2019-06-20T18:11:22.902Z,28.40
2019-06-20T18:13:53.333Z,28.20
2019-06-20T18:16:25.384Z,28.10
2019-06-20T18:18:57.026Z,27.90
2019-06-20T18:21:27.436Z,27.70
2019-06-20T18:23:57.756Z,27.60
2019-06-20T18:26:28.140Z,27.50
2019-06-20T18:28:58.536Z,27.30
2019-06-20T18:31:28.945Z,27.20
2019-06-20T18:33:59.387Z,27.10
2019-06-20T18:36:29.756Z,26.90
2019-06-20T18:39:00.122Z,26.80
2019-06-20T18:41:30.496Z,26.70
2019-06-20T18:44:00.860Z,26.60
2019-06-20T18:46:31.233Z,26.50
2019-06-20T18:49:01.612Z,26.30
2019-06-20T18:51:31.971Z,26.30
2019-06-20T18:54:02.363Z,26.10
2019-06-20T18:56:32.788Z,26.10
2019-06-20T18:59:03.150Z,26.00
2019-06-20T19:01:34.469Z,25.80
2019-06-20T19:04:06.066Z,25.80
2019-06-20T19:06:36.627Z,25.70
2019-06-20T19:09:09.694Z,25.60
2019-06-20T19:11:40.176Z,25.50
2019-06-20T19:14:12.681Z,25.40
2019-06-20T19:16:43.154Z,25.30
2019-06-20T19:19:13.520Z,25.30
2019-06-20T19:21:43.891Z,25.20
2019-06-20T19:24:14.255Z,25.10
2019-06-20T19:26:44.728Z,25.10
2019-06-20T19:29:15.091Z,25.00
2019-06-20T19:31:45.454Z,24.90
2019-06-20T19:34:15.816Z,24.90
2019-06-20T19:36:46.187Z,24.80
2019-06-20T19:39:16.553Z,24.80
2019-06-20T19:41:46.930Z,24.80
2019-06-20T19:44:17.323Z,24.70
2019-06-20T19:46:47.660Z,24.70
2019-06-20T19:49:18.024Z,24.60
2019-06-20T19:51:48.403Z,24.60
2019-06-20T19:54:18.834Z,24.60
2019-06-20T19:56:49.377Z,24.50
2019-06-20T19:59:20.031Z,24.50
2019-06-20T20:01:50.412Z,24.40
2019-06-20T20:04:20.783Z,24.40
2019-06-20T20:06:51.154Z,24.40
2019-06-20T20:09:21.564Z,24.40
2019-06-20T20:11:51.968Z,24.30
2019-06-20T20:14:22.504Z,24.20
2019-06-20T20:16:52.880Z,24.20
2019-06-20T20:19:23.239Z,24.10
2019-06-20T20:21:53.621Z,24.00
2019-06-20T20:24:23.985Z,23.90
2019-06-20T20:26:54.350Z,23.80
2019-06-20T20:29:24.722Z,23.70
2019-06-20T20:31:55.086Z,23.60
2019-06-20T20:34:25.454Z,23.50
2019-06-20T20:36:55.818Z,23.40
2019-06-20T20:39:26.418Z,23.20
2019-06-20T20:41:56.805Z,23.00
2019-06-20T20:44:27.166Z,22.90
2019-06-20T20:46:57.540Z,22.70
2019-06-20T20:49:27.933Z,22.60
2019-06-20T20:51:58.284Z,22.50
2019-06-20T20:54:28.661Z,22.40
2019-06-20T20:56:59.068Z,22.20
2019-06-20T20:59:29.649Z,22.10
2019-06-20T21:02:00.979Z,22.10
2019-06-20T21:04:31.355Z,22.00
2019-06-20T21:07:01.743Z,21.90
2019-06-20T21:09:32.167Z,21.90
2019-06-20T21:12:02.540Z,21.80
2019-06-20T21:14:32.903Z,21.70
2019-06-20T21:17:03.275Z,21.60
2019-06-20T21:19:33.642Z,21.50
2019-06-20T21:22:04.078Z,21.50
2019-06-20T21:24:34.446Z,21.50
2019-06-20T21:27:04.818Z,21.40
2019-06-20T21:29:35.186Z,21.40
2019-06-20T21:32:06.215Z,21.30
2019-06-20T21:34:36.594Z,21.20
2019-06-20T21:37:07.033Z,21.20
2019-06-20T21:39:38.825Z,21.10
2019-06-20T21:42:09.342Z,21.10
2019-06-20T21:44:39.985Z,21.10
2019-06-20T21:47:10.410Z,21.00
2019-06-20T21:49:40.807Z,20.90
2019-06-20T21:52:11.161Z,20.90
2019-06-20T21:54:41.542Z,20.90
2019-06-20T21:57:11.912Z,20.90
2019-06-20T21:59:42.283Z,20.90
2019-06-20T22:02:12.735Z,20.90
2019-06-20T22:04:54.004Z,20.90
2019-06-20T22:07:15.175Z,20.90
2019-06-20T22:09:45.549Z,20.80
2019-06-20T22:12:16.134Z,20.80
2019-06-20T22:14:46.512Z,20.80
2019-06-20T22:17:16.877Z,20.80
2019-06-20T22:19:47.251Z,20.80
2019-06-20T22:22:17.618Z,20.80
2019-06-20T22:24:48.011Z,20.80
2019-06-20T22:27:18.361Z,20.80
2019-06-20T22:29:48.737Z,20.80
2019-06-20T22:32:19.189Z,20.80
2019-06-20T22:34:49.570Z,20.70
2019-06-20T22:37:19.926Z,20.70
2019-06-20T22:39:50.290Z,20.70
2019-06-20T22:42:20.652Z,20.70
2019-06-20T22:44:51.033Z,20.70
2019-06-20T22:47:21.404Z,20.70
2019-06-20T22:49:51.793Z,20.60
2019-06-20T22:52:22.162Z,20.60
2019-06-20T22:54:52.545Z,20.60
2019-06-20T22:57:22.911Z,20.60
2019-06-20T22:59:53.569Z,20.60
2019-06-20T23:02:23.937Z,20.60
2019-06-20T23:04:54.325Z,20.50
2019-06-20T23:07:24.683Z,20.50
2019-06-20T23:10:09.210Z,20.50
2019-06-20T23:12:27.774Z,20.50
2019-06-20T23:14:58.139Z,20.50
2019-06-20T23:17:28.546Z,20.50
2019-06-20T23:19:58.926Z,20.40
2019-06-20T23:22:29.321Z,20.40
2019-06-20T23:24:59.710Z,20.40
2019-06-20T23:27:30.072Z,20.40
2019-06-20T23:30:00.677Z,20.30
2019-06-20T23:32:31.112Z,20.30
2019-06-20T23:35:01.483Z,20.20
2019-06-20T23:37:32.128Z,20.20
2019-06-20T23:40:03.730Z,20.10
2019-06-20T23:42:34.415Z,20.10
2019-06-20T23:45:06.743Z,20.00
2019-06-20T23:47:37.330Z,19.90
2019-06-20T23:50:18.304Z,19.90
2019-06-20T23:52:51.929Z,19.80
2019-06-20T23:55:22.299Z,19.80
2019-06-20T23:57:53.064Z,19.70
